createdAt,value
2022-12-09T00:01:40.372Z,0
2022-12-09T00:06:42.190Z,0
2022-12-09T00:11:43.684Z,0
2022-12-09T00:16:45.391Z,0
2022-12-09T00:21:47.355Z,0
2022-12-09T00:26:48.839Z,0
2022-12-09T00:31:50.429Z,0
2022-12-09T00:36:52.068Z,0
2022-12-09T00:41:53.589Z,0
2022-12-09T00:46:55.477Z,0
2022-12-09T00:51:57.543Z,0
2022-12-09T00:56:59.171Z,0
2022-12-09T01:02:01.016Z,0
2022-12-09T01:07:02.916Z,0
2022-12-09T01:12:04.647Z,0
2022-12-09T01:17:06.317Z,0
2022-12-09T01:22:08.395Z,0
2022-12-09T01:27:10.095Z,0
2022-12-09T01:32:11.829Z,0
2022-12-09T01:37:13.721Z,0
2022-12-09T01:42:15.161Z,0
2022-12-09T01:47:16.974Z,0
2022-12-09T01:52:19.076Z,0
2022-12-09T01:57:20.746Z,0
2022-12-09T02:02:22.399Z,0
2022-12-09T02:07:24.027Z,0
2022-12-09T02:12:25.540Z,0
2022-12-09T02:17:27.203Z,0.88715
2022-12-09T02:22:29.354Z,0
2022-12-09T02:27:31.147Z,0
2022-12-09T02:32:32.818Z,0
2022-12-09T02:37:34.427Z,0.88715
2022-12-09T02:42:36.145Z,0
2022-12-09T02:47:38.012Z,0.88715
2022-12-09T02:52:40.552Z,1.16185
2022-12-09T02:57:42.392Z,1.3463
2022-12-09T03:02:44.158Z,2.50815
2022-12-09T03:07:45.741Z,2.87705
2022-12-09T03:12:47.375Z,10.82555
2022-12-09T03:17:49.369Z,8.4467
2022-12-09T03:22:51.969Z,15.4178
2022-12-09T03:27:53.590Z,16.7641
2022-12-09T03:32:55.765Z,20.4341
2022-12-09T03:37:57.633Z,30.0978
2022-12-09T03:42:59.559Z,29.6186
2022-12-09T03:48:01.432Z,43.13675
2022-12-09T03:53:03.196Z,47.67385
2022-12-09T03:58:05.056Z,58.20465
2022-12-09T04:03:06.800Z,62.0591
2022-12-09T04:08:08.633Z,64.80685
2022-12-09T04:13:10.527Z,69.768
2022-12-09T04:18:12.337Z,73.64145
2022-12-09T04:23:14.133Z,76.7581
2022-12-09T04:28:15.888Z,91.4381
2022-12-09T04:33:17.584Z,106.6353
2022-12-09T04:38:19.164Z,121.5929
2022-12-09T04:43:21.109Z,134.24395
2022-12-09T04:48:22.883Z,163.3092
2022-12-09T04:53:24.970Z,190.82655
2022-12-09T04:58:26.767Z,242.98235
2022-12-09T05:03:28.727Z,306.2946
2022-12-09T05:08:31.837Z,316.25305
2022-12-09T05:13:34.264Z,310.5921
2022-12-09T05:18:36.124Z,341.13295
2022-12-09T05:23:38.477Z,284.91925
2022-12-09T05:28:40.317Z,248.1451
2022-12-09T05:33:42.301Z,195.58425
2022-12-09T05:38:44.460Z,286.74475
2022-12-09T05:43:46.512Z,328.60935
2022-12-09T05:48:48.396Z,333.70165
2022-12-09T05:53:50.481Z,390.4307
2022-12-09T05:58:52.196Z,467.22495
2022-12-09T06:03:54.222Z,464.03415
2022-12-09T06:08:56.374Z,474.43565
2022-12-09T06:13:58.357Z,478.49355
2022-12-09T06:19:00.104Z,471.26385
2022-12-09T06:24:02.036Z,460.12455
2022-12-09T06:29:04.286Z,440.31795
2022-12-09T06:34:06.147Z,473.25665
2022-12-09T06:39:10.044Z,491.84625
2022-12-09T06:44:15.835Z,475.35975
2022-12-09T06:49:21.594Z,508.53805
2022-12-09T06:54:23.689Z,523.1819
2022-12-09T06:59:25.449Z,580.4263
2022-12-09T07:04:27.479Z,602.53945
2022-12-09T07:09:29.805Z,606.85595
2022-12-09T07:14:31.977Z,671.077
2022-12-09T07:19:33.928Z,671.23875
2022-12-09T07:24:36.463Z,706.04095
2022-12-09T07:29:38.408Z,736.6388
2022-12-09T07:34:40.574Z,887.9712
2022-12-09T07:39:42.526Z,777.7276
2022-12-09T07:44:44.276Z,768.931
2022-12-09T07:49:46.053Z,757.05575
2022-12-09T07:54:47.852Z,844.24175
2022-12-09T07:59:49.940Z,955.8802
2022-12-09T08:04:51.965Z,978.9765
2022-12-09T08:09:54.136Z,877.757
2022-12-09T08:14:56.039Z,849.72615
2022-12-09T08:19:58.143Z,856.1249
2022-12-09T08:25:00.550Z,871.69655
2022-12-09T08:30:02.633Z,793.05595
2022-12-09T08:35:04.649Z,775.3506
2022-12-09T08:40:06.694Z,792.8789
2022-12-09T08:45:09.314Z,622.4202
2022-12-09T08:50:17.807Z,658.81755
2022-12-09T08:55:20.472Z,689.0317
2022-12-09T09:00:22.459Z,852.63885
2022-12-09T09:05:24.148Z,1000.0853
2022-12-09T09:10:26.686Z,903.4164
2022-12-09T09:15:28.421Z,931.13535
2022-12-09T09:20:30.213Z,1039.90705
2022-12-09T09:25:32.446Z,1024.7963
2022-12-09T09:30:34.569Z,1019.34505
2022-12-09T09:35:36.626Z,949.59945
2022-12-09T09:40:38.705Z,803.46905
2022-12-09T09:45:40.500Z,915.3236
2022-12-09T09:50:42.768Z,861.1982
2022-12-09T09:55:44.931Z,1152.4944
2022-12-09T10:00:47.772Z,1035.0474
2022-12-09T10:05:50.281Z,1196.5816
2022-12-09T10:10:52.662Z,1119.1921
2022-12-09T10:15:54.917Z,899.70465
2022-12-09T10:20:57.232Z,919.08155
2022-12-09T10:25:59.543Z,1244.5205
2022-12-09T10:31:01.763Z,736.03215
2022-12-09T10:36:03.577Z,693.5345
2022-12-09T10:41:05.200Z,618.07125
2022-12-09T10:46:18.784Z,507.8897
2022-12-09T10:51:21.452Z,416.15685
2022-12-09T10:56:23.490Z,345.17185
2022-12-09T11:01:25.467Z,264.3197
2022-12-09T11:06:27.365Z,196.28405
2022-12-09T11:11:29.345Z,105.84235
2022-12-09T11:16:31.294Z,85.5737
2022-12-09T11:21:33.435Z,75.59625
2022-12-09T11:26:35.844Z,73.64145
2022-12-09T11:31:37.575Z,68.25625
2022-12-09T11:36:42.368Z,76.57365
2022-12-09T11:41:45.508Z,121.86865
2022-12-09T11:46:47.133Z,216.29595
2022-12-09T11:51:48.673Z,175.77765
2022-12-09T11:56:57.938Z,142.80095
2022-12-09T12:01:59.667Z,115.063
2022-12-09T12:07:01.178Z,112.88575
2022-12-09T12:12:02.764Z,152.42665
2022-12-09T12:17:04.435Z,143.187
2022-12-09T12:22:05.940Z,110.82065
2022-12-09T12:27:07.657Z,91.4191
2022-12-09T12:32:09.712Z,80.8883
2022-12-09T12:37:11.300Z,76.3512
2022-12-09T12:42:12.836Z,76.1116
2022-12-09T12:47:14.345Z,72.0727
2022-12-09T12:52:39.431Z,69.19565
2022-12-09T12:57:55.935Z,76.3512
2022-12-09T13:03:00.832Z,82.76895
2022-12-09T13:08:04.710Z,81.4778
2022-12-09T13:13:06.231Z,67.59075
2022-12-09T13:18:07.751Z,58.1115
2022-12-09T13:23:09.314Z,56.7652
2022-12-09T13:28:11.217Z,51.69375
2022-12-09T13:33:12.783Z,38.1756
2022-12-09T13:38:14.216Z,41.05265
2022-12-09T13:43:15.783Z,50.2923
2022-12-09T13:48:17.710Z,53.1142
2022-12-09T13:53:19.257Z,52.32125
2022-12-09T13:58:21.009Z,54.2209
2022-12-09T14:03:22.717Z,58.3891
2022-12-09T14:08:24.437Z,64.45695
2022-12-09T14:13:26.020Z,79.8196
2022-12-09T14:18:27.751Z,91.0882
2022-12-09T14:23:29.258Z,107.3731
2022-12-09T14:28:30.996Z,129.6517
2022-12-09T14:33:32.654Z,159.2893
2022-12-09T14:38:34.216Z,193.88805
2022-12-09T14:43:35.922Z,247.99865
2022-12-09T14:48:37.884Z,348.12305
2022-12-09T14:53:39.343Z,649.0343
2022-12-09T14:58:40.994Z,496.4385
2022-12-09T15:03:45.751Z,1209.8783
2022-12-09T15:08:47.509Z,730.1585
2022-12-09T15:13:49.031Z,657.36515
2022-12-09T15:18:50.503Z,418.8856
2022-12-09T15:23:51.985Z,486.47635
2022-12-09T15:28:53.676Z,313.357
2022-12-09T15:33:55.159Z,276.19495
2022-12-09T15:38:57.332Z,202.86725
2022-12-09T15:43:58.828Z,137.11915
2022-12-09T15:49:00.552Z,93.2446
2022-12-09T15:54:02.123Z,69.2508
2022-12-09T15:59:03.889Z,57.1341
2022-12-09T16:04:05.305Z,55.36375
2022-12-09T16:09:06.801Z,58.0012
2022-12-09T16:14:08.272Z,59.29235
2022-12-09T16:19:09.845Z,53.2435
2022-12-09T16:24:11.412Z,52.2661
2022-12-09T16:29:13.259Z,49.2046
2022-12-09T16:34:14.828Z,31.5924
2022-12-09T16:39:16.264Z,25.2298
2022-12-09T16:44:18.257Z,13.27365
2022-12-09T16:49:19.798Z,14.68
2022-12-09T16:54:21.270Z,5.0163
2022-12-09T16:59:23.115Z,2.50815
2022-12-09T17:04:24.751Z,1.3463
2022-12-09T17:09:26.235Z,2.32725
2022-12-09T17:14:28.747Z,0.88715
2022-12-09T17:19:30.190Z,0.88715
2022-12-09T17:24:31.805Z,0.88715
2022-12-09T17:29:33.513Z,0.88715
2022-12-09T17:34:36.659Z,0.88715
2022-12-09T17:39:38.428Z,0
2022-12-09T17:44:40.150Z,0
2022-12-09T17:49:41.582Z,0
2022-12-09T17:54:43.133Z,0
2022-12-09T17:59:44.823Z,0
2022-12-09T18:04:46.298Z,0
2022-12-09T18:09:54.183Z,0
2022-12-09T18:14:56.110Z,0
2022-12-09T18:19:57.581Z,0
2022-12-09T18:24:59.046Z,0
2022-12-09T18:30:00.692Z,0
2022-12-09T18:35:02.263Z,0
2022-12-09T18:40:03.908Z,0
2022-12-09T18:45:05.546Z,0
2022-12-09T18:50:07.567Z,0
2022-12-09T18:55:09.342Z,0
2022-12-09T19:00:11.016Z,0
2022-12-09T19:05:12.471Z,0
2022-12-09T19:10:13.951Z,0
2022-12-09T19:15:16.477Z,0
2022-12-09T19:20:17.956Z,0
2022-12-09T19:25:19.584Z,0
2022-12-09T19:30:21.191Z,0
2022-12-09T19:35:22.647Z,0.88715
2022-12-09T19:40:24.095Z,0
2022-12-09T19:45:25.717Z,0
2022-12-09T19:50:27.186Z,0
2022-12-09T19:55:29.292Z,0
2022-12-09T20:00:31.222Z,0.88715
2022-12-09T20:05:32.987Z,0
2022-12-09T20:10:34.461Z,0
2022-12-09T20:15:36.058Z,0.88715
2022-12-09T20:20:37.566Z,0.88715
2022-12-09T20:25:39.097Z,0
2022-12-09T20:30:40.811Z,0
2022-12-09T20:35:42.298Z,0
2022-12-09T20:40:43.815Z,0
2022-12-09T20:45:46.419Z,0.88715
2022-12-09T20:50:48.672Z,0
2022-12-09T20:55:50.138Z,0
2022-12-09T21:00:51.923Z,0.88715
2022-12-09T21:05:53.424Z,0.88715
2022-12-09T21:10:54.944Z,0
2022-12-09T21:15:56.526Z,0.88715
2022-12-09T21:20:58.130Z,0
2022-12-09T21:25:59.576Z,0.88715
2022-12-09T21:31:01.454Z,0
2022-12-09T21:36:02.983Z,0
2022-12-09T21:41:04.444Z,0
2022-12-09T21:46:06.600Z,0
2022-12-09T21:51:09.495Z,0
2022-12-09T21:56:12.186Z,0
2022-12-09T22:01:13.951Z,0
2022-12-09T22:06:15.506Z,0
2022-12-09T22:11:16.999Z,0
2022-12-09T22:16:18.617Z,0
2022-12-09T22:21:25.252Z,0
2022-12-09T22:26:27.393Z,0
2022-12-09T22:31:30.661Z,0
2022-12-09T22:36:32.276Z,0
2022-12-09T22:41:33.753Z,0
2022-12-09T22:46:35.452Z,0
2022-12-09T22:51:36.999Z,0
2022-12-09T22:56:38.515Z,0
2022-12-09T23:01:40.299Z,0
2022-12-09T23:06:41.847Z,0
2022-12-09T23:11:43.288Z,0.88715
2022-12-09T23:16:44.788Z,0
2022-12-09T23:21:46.905Z,0
2022-12-09T23:26:48.355Z,0
2022-12-09T23:31:49.989Z,0
2022-12-09T23:36:51.516Z,0.88715
2022-12-09T23:41:52.908Z,0
2022-12-09T23:46:54.661Z,0
2022-12-09T23:51:56.154Z,0
2022-12-09T23:56:57.574Z,0
